Old Orchard Beach, Maine
Current Conditions -  °F | °C
As of 5:51 AM on Sunday 23 Nov 2014 (Local Time) from KPWM Reporting Station
Scattered Clouds Scattered Clouds  
Wind Chill: 34°   Ceiling: Unl
Heat Index: 40°   Visibility: 10mi
Dew Point: 27°   Wind: 9mph
Humidity: 60%   Direction: 220°SW
Pressure: 30.01"   Gusts: NA
Location:  43.52°N, 70.38°W
Report Text: KPWM 231051Z 22008KT 10SM FEW090 SCT110 04/M03 A3001 RMK AO2 SLP162 T00441028
Loading
Personal Weather Stations






























Interactive Weather Map New forecast layout! Learn more

10-Day Weather Forecast

Advertisements
Track Severe Weather on mobile